sensor_id;sensor_type;location;lat;lon;timestamp;P1;durP1;ratioP1;P2;durP2;ratioP2
71969;SDS011;59838;52.152;5.436;2023-02-11T00:00:57;10.35;;;1.58;;
71969;SDS011;59838;52.152;5.436;2023-02-11T00:03:24;19.70;;;2.45;;
71969;SDS011;59838;52.152;5.436;2023-02-11T00:06:01;11.63;;;1.83;;
71969;SDS011;59838;52.152;5.436;2023-02-11T00:08:30;12.90;;;1.43;;
71969;SDS011;59838;52.152;5.436;2023-02-11T00:10:56;7.63;;;1.80;;
71969;SDS011;59838;52.152;5.436;2023-02-11T00:13:23;11.48;;;1.75;;
71969;SDS011;59838;52.152;5.436;2023-02-11T00:15:50;11.63;;;1.55;;
71969;SDS011;59838;52.152;5.436;2023-02-11T00:18:17;12.95;;;2.05;;
71969;SDS011;59838;52.152;5.436;2023-02-11T00:20:44;10.93;;;1.30;;
71969;SDS011;59838;52.152;5.436;2023-02-11T00:23:10;12.13;;;1.45;;
71969;SDS011;59838;52.152;5.436;2023-02-11T00:25:37;11.63;;;1.15;;
71969;SDS011;59838;52.152;5.436;2023-02-11T00:28:08;10.25;;;1.63;;
71969;SDS011;59838;52.152;5.436;2023-02-11T00:30:36;15.52;;;1.73;;
71969;SDS011;59838;52.152;5.436;2023-02-11T00:33:02;14.60;;;1.17;;
71969;SDS011;59838;52.152;5.436;2023-02-11T00:35:29;8.43;;;1.15;;
71969;SDS011;59838;52.152;5.436;2023-02-11T00:37:55;12.48;;;1.67;;
71969;SDS011;59838;52.152;5.436;2023-02-11T00:40:22;13.30;;;1.48;;
71969;SDS011;59838;52.152;5.436;2023-02-11T00:42:48;11.38;;;1.67;;
71969;SDS011;59838;52.152;5.436;2023-02-11T00:45:15;15.70;;;2.57;;
71969;SDS011;59838;52.152;5.436;2023-02-11T00:47:41;8.30;;;1.60;;
71969;SDS011;59838;52.152;5.436;2023-02-11T00:50:08;10.35;;;1.67;;
71969;SDS011;59838;52.152;5.436;2023-02-11T00:52:34;13.57;;;1.67;;
71969;SDS011;59838;52.152;5.436;2023-02-11T00:55:01;15.82;;;1.75;;
71969;SDS011;59838;52.152;5.436;2023-02-11T00:57:27;11.43;;;1.40;;
71969;SDS011;59838;52.152;5.436;2023-02-11T00:59:54;13.27;;;1.42;;
71969;SDS011;59838;52.152;5.436;2023-02-11T01:02:20;12.73;;;1.27;;
71969;SDS011;59838;52.152;5.436;2023-02-11T01:04:47;14.63;;;1.77;;
71969;SDS011;59838;52.152;5.436;2023-02-11T01:07:13;10.63;;;1.50;;
71969;SDS011;59838;52.152;5.436;2023-02-11T01:09:40;8.50;;;1.00;;
71969;SDS011;59838;52.152;5.436;2023-02-11T01:12:06;13.15;;;1.60;;
71969;SDS011;59838;52.152;5.436;2023-02-11T01:14:32;14.20;;;1.63;;
71969;SDS011;59838;52.152;5.436;2023-02-11T01:16:59;11.27;;;1.58;;
71969;SDS011;59838;52.152;5.436;2023-02-11T01:19:25;15.30;;;2.42;;
71969;SDS011;59838;52.152;5.436;2023-02-11T01:21:52;10.23;;;1.30;;
71969;SDS011;59838;52.152;5.436;2023-02-11T01:24:18;12.68;;;1.80;;
71969;SDS011;59838;52.152;5.436;2023-02-11T01:26:44;16.20;;;2.08;;
71969;SDS011;59838;52.152;5.436;2023-02-11T01:29:11;16.50;;;1.75;;
71969;SDS011;59838;52.152;5.436;2023-02-11T01:31:37;13.15;;;1.92;;
71969;SDS011;59838;52.152;5.436;2023-02-11T01:34:04;12.80;;;2.27;;
71969;SDS011;59838;52.152;5.436;2023-02-11T01:36:30;12.50;;;1.77;;
71969;SDS011;59838;52.152;5.436;2023-02-11T01:38:57;11.50;;;1.55;;
71969;SDS011;59838;52.152;5.436;2023-02-11T01:41:23;15.57;;;1.83;;
71969;SDS011;59838;52.152;5.436;2023-02-11T01:43:50;17.45;;;1.80;;
71969;SDS011;59838;52.152;5.436;2023-02-11T01:49:00;12.95;;;1.92;;
71969;SDS011;59838;52.152;5.436;2023-02-11T01:52:02;12.13;;;1.88;;
71969;SDS011;59838;52.152;5.436;2023-02-11T01:54:30;16.50;;;2.15;;
71969;SDS011;59838;52.152;5.436;2023-02-11T01:57:21;10.38;;;1.65;;
71969;SDS011;59838;52.152;5.436;2023-02-11T01:59:53;15.70;;;1.73;;
71969;SDS011;59838;52.152;5.436;2023-02-11T02:02:29;10.23;;;1.40;;
71969;SDS011;59838;52.152;5.436;2023-02-11T02:10:26;8.40;;;1.50;;
71969;SDS011;59838;52.152;5.436;2023-02-11T02:12:54;14.20;;;1.67;;
71969;SDS011;59838;52.152;5.436;2023-02-11T02:15:22;7.97;;;1.55;;
71969;SDS011;59838;52.152;5.436;2023-02-11T02:18:02;12.98;;;2.33;;
71969;SDS011;59838;52.152;5.436;2023-02-11T02:29:30;15.68;;;1.88;;
71969;SDS011;59838;52.152;5.436;2023-02-11T02:35:04;19.15;;;2.58;;
71969;SDS011;59838;52.152;5.436;2023-02-11T02:37:42;9.23;;;1.42;;
71969;SDS011;59838;52.152;5.436;2023-02-11T02:40:23;15.20;;;1.90;;
71969;SDS011;59838;52.152;5.436;2023-02-11T02:42:54;18.50;;;2.28;;
71969;SDS011;59838;52.152;5.436;2023-02-11T02:45:22;11.65;;;1.30;;
71969;SDS011;59838;52.152;5.436;2023-02-11T02:47:49;11.88;;;1.77;;
71969;SDS011;59838;52.152;5.436;2023-02-11T02:50:16;12.80;;;2.03;;
71969;SDS011;59838;52.152;5.436;2023-02-11T02:52:55;15.50;;;2.30;;
71969;SDS011;59838;52.152;5.436;2023-02-11T03:01:04;9.07;;;1.80;;
71969;SDS011;59838;52.152;5.436;2023-02-11T03:06:46;14.13;;;2.03;;
71969;SDS011;59838;52.152;5.436;2023-02-11T03:09:19;13.38;;;2.05;;
71969;SDS011;59838;52.152;5.436;2023-02-11T03:11:51;14.98;;;2.28;;
71969;SDS011;59838;52.152;5.436;2023-02-11T03:14:18;9.48;;;1.98;;
71969;SDS011;59838;52.152;5.436;2023-02-11T03:16:48;12.65;;;2.10;;
71969;SDS011;59838;52.152;5.436;2023-02-11T03:19:21;10.60;;;2.20;;
71969;SDS011;59838;52.152;5.436;2023-02-11T03:21:51;11.05;;;2.50;;
71969;SDS011;59838;52.152;5.436;2023-02-11T03:24:39;17.25;;;2.25;;
71969;SDS011;59838;52.152;5.436;2023-02-11T03:32:40;8.47;;;1.97;;
71969;SDS011;59838;52.152;5.436;2023-02-11T03:35:15;14.98;;;2.60;;
71969;SDS011;59838;52.152;5.436;2023-02-11T03:40:28;10.88;;;2.10;;
71969;SDS011;59838;52.152;5.436;2023-02-11T03:43:07;8.38;;;2.08;;
71969;SDS011;59838;52.152;5.436;2023-02-11T03:45:37;15.23;;;2.30;;
71969;SDS011;59838;52.152;5.436;2023-02-11T03:48:07;11.23;;;2.60;;
71969;SDS011;59838;52.152;5.436;2023-02-11T03:50:39;13.55;;;2.38;;
71969;SDS011;59838;52.152;5.436;2023-02-11T03:53:07;12.25;;;2.80;;
71969;SDS011;59838;52.152;5.436;2023-02-11T03:55:36;19.73;;;3.00;;
71969;SDS011;59838;52.152;5.436;2023-02-11T03:58:04;9.67;;;3.23;;
71969;SDS011;59838;52.152;5.436;2023-02-11T04:00:32;11.18;;;2.65;;
71969;SDS011;59838;52.152;5.436;2023-02-11T04:03:02;12.90;;;3.28;;
71969;SDS011;59838;52.152;5.436;2023-02-11T04:05:29;15.23;;;3.53;;
71969;SDS011;59838;52.152;5.436;2023-02-11T04:07:55;10.55;;;3.38;;
71969;SDS011;59838;52.152;5.436;2023-02-11T04:10:22;18.53;;;3.40;;
71969;SDS011;59838;52.152;5.436;2023-02-11T04:12:49;16.42;;;3.45;;
71969;SDS011;59838;52.152;5.436;2023-02-11T04:15:15;14.65;;;3.70;;
71969;SDS011;59838;52.152;5.436;2023-02-11T04:17:42;12.73;;;3.67;;
71969;SDS011;59838;52.152;5.436;2023-02-11T04:20:10;12.52;;;4.40;;
71969;SDS011;59838;52.152;5.436;2023-02-11T04:22:36;11.43;;;4.20;;
71969;SDS011;59838;52.152;5.436;2023-02-11T04:25:04;14.07;;;4.35;;
71969;SDS011;59838;52.152;5.436;2023-02-11T04:27:31;16.88;;;4.53;;
71969;SDS011;59838;52.152;5.436;2023-02-11T04:29:57;17.52;;;4.25;;
71969;SDS011;59838;52.152;5.436;2023-02-11T04:32:24;13.77;;;3.60;;
71969;SDS011;59838;52.152;5.436;2023-02-11T04:34:50;18.03;;;3.80;;
71969;SDS011;59838;52.152;5.436;2023-02-11T04:37:17;13.05;;;4.22;;
71969;SDS011;59838;52.152;5.436;2023-02-11T04:39:43;21.67;;;4.38;;
71969;SDS011;59838;52.152;5.436;2023-02-11T04:42:10;11.93;;;4.35;;
71969;SDS011;59838;52.152;5.436;2023-02-11T04:44:36;21.85;;;5.35;;
71969;SDS011;59838;52.152;5.436;2023-02-11T04:47:02;23.73;;;4.97;;
71969;SDS011;59838;52.152;5.436;2023-02-11T04:49:29;24.63;;;5.15;;
71969;SDS011;59838;52.152;5.436;2023-02-11T04:51:55;17.40;;;4.82;;
71969;SDS011;59838;52.152;5.436;2023-02-11T04:54:22;18.83;;;6.05;;
71969;SDS011;59838;52.152;5.436;2023-02-11T04:56:48;25.65;;;6.22;;
71969;SDS011;59838;52.152;5.436;2023-02-11T04:59:16;10.83;;;4.67;;
71969;SDS011;59838;52.152;5.436;2023-02-11T05:01:42;18.48;;;5.93;;
71969;SDS011;59838;52.152;5.436;2023-02-11T05:04:09;15.30;;;5.93;;
71969;SDS011;59838;52.152;5.436;2023-02-11T05:06:37;23.35;;;6.13;;
71969;SDS011;59838;52.152;5.436;2023-02-11T05:09:04;20.42;;;6.43;;
71969;SDS011;59838;52.152;5.436;2023-02-11T05:11:31;21.13;;;5.60;;
71969;SDS011;59838;52.152;5.436;2023-02-11T05:13:57;19.65;;;6.40;;
71969;SDS011;59838;52.152;5.436;2023-02-11T05:16:24;28.23;;;7.30;;
71969;SDS011;59838;52.152;5.436;2023-02-11T05:18:50;16.92;;;5.63;;
71969;SDS011;59838;52.152;5.436;2023-02-11T05:21:18;15.80;;;5.93;;
71969;SDS011;59838;52.152;5.436;2023-02-11T05:23:45;13.53;;;6.10;;
71969;SDS011;59838;52.152;5.436;2023-02-11T05:26:12;17.95;;;6.53;;
71969;SDS011;59838;52.152;5.436;2023-02-11T05:28:39;21.88;;;6.22;;
71969;SDS011;59838;52.152;5.436;2023-02-11T05:31:06;16.45;;;5.85;;
71969;SDS011;59838;52.152;5.436;2023-02-11T05:33:34;20.30;;;6.55;;
71969;SDS011;59838;52.152;5.436;2023-02-11T05:36:01;18.77;;;6.40;;
71969;SDS011;59838;52.152;5.436;2023-02-11T05:38:33;23.88;;;6.35;;
71969;SDS011;59838;52.152;5.436;2023-02-11T05:41:00;19.13;;;6.28;;
71969;SDS011;59838;52.152;5.436;2023-02-11T05:43:27;17.83;;;6.22;;
71969;SDS011;59838;52.152;5.436;2023-02-11T05:45:53;24.10;;;7.25;;
71969;SDS011;59838;52.152;5.436;2023-02-11T05:48:20;19.20;;;6.83;;
71969;SDS011;59838;52.152;5.436;2023-02-11T05:50:46;22.50;;;7.00;;
71969;SDS011;59838;52.152;5.436;2023-02-11T05:53:13;17.63;;;7.25;;
71969;SDS011;59838;52.152;5.436;2023-02-11T05:55:40;23.27;;;7.20;;
71969;SDS011;59838;52.152;5.436;2023-02-11T05:58:07;23.17;;;6.55;;
71969;SDS011;59838;52.152;5.436;2023-02-11T06:00:33;21.13;;;7.40;;
71969;SDS011;59838;52.152;5.436;2023-02-11T06:03:00;22.65;;;7.75;;
71969;SDS011;59838;52.152;5.436;2023-02-11T06:05:29;15.55;;;6.68;;
71969;SDS011;59838;52.152;5.436;2023-02-11T06:07:56;20.38;;;7.45;;
71969;SDS011;59838;52.152;5.436;2023-02-11T06:10:22;23.02;;;8.23;;
71969;SDS011;59838;52.152;5.436;2023-02-11T06:12:49;19.87;;;7.33;;
71969;SDS011;59838;52.152;5.436;2023-02-11T06:15:15;23.15;;;7.05;;
71969;SDS011;59838;52.152;5.436;2023-02-11T06:17:41;23.27;;;7.03;;
71969;SDS011;59838;52.152;5.436;2023-02-11T06:20:08;18.92;;;7.40;;
71969;SDS011;59838;52.152;5.436;2023-02-11T06:22:36;17.40;;;7.88;;
71969;SDS011;59838;52.152;5.436;2023-02-11T06:25:03;19.10;;;8.07;;
71969;SDS011;59838;52.152;5.436;2023-02-11T06:27:30;22.40;;;8.48;;
71969;SDS011;59838;52.152;5.436;2023-02-11T06:29:56;24.65;;;9.05;;
71969;SDS011;59838;52.152;5.436;2023-02-11T06:32:23;22.33;;;8.50;;
71969;SDS011;59838;52.152;5.436;2023-02-11T06:35:09;17.88;;;7.53;;
71969;SDS011;59838;52.152;5.436;2023-02-11T06:37:37;25.37;;;7.93;;
71969;SDS011;59838;52.152;5.436;2023-02-11T06:40:04;22.38;;;8.40;;
71969;SDS011;59838;52.152;5.436;2023-02-11T06:42:31;27.25;;;9.90;;
71969;SDS011;59838;52.152;5.436;2023-02-11T06:44:57;19.48;;;7.70;;
71969;SDS011;59838;52.152;5.436;2023-02-11T06:47:24;23.33;;;8.82;;
71969;SDS011;59838;52.152;5.436;2023-02-11T06:49:50;32.13;;;8.80;;
71969;SDS011;59838;52.152;5.436;2023-02-11T06:52:17;20.52;;;7.55;;
71969;SDS011;59838;52.152;5.436;2023-02-11T06:54:43;23.23;;;8.20;;
71969;SDS011;59838;52.152;5.436;2023-02-11T06:57:10;24.20;;;9.75;;
71969;SDS011;59838;52.152;5.436;2023-02-11T06:59:36;25.15;;;8.88;;
71969;SDS011;59838;52.152;5.436;2023-02-11T07:02:03;20.80;;;8.47;;
71969;SDS011;59838;52.152;5.436;2023-02-11T07:04:29;26.23;;;8.02;;
71969;SDS011;59838;52.152;5.436;2023-02-11T07:06:56;28.58;;;9.27;;
71969;SDS011;59838;52.152;5.436;2023-02-11T07:09:22;23.27;;;9.32;;
71969;SDS011;59838;52.152;5.436;2023-02-11T07:11:49;26.40;;;9.45;;
71969;SDS011;59838;52.152;5.436;2023-02-11T07:14:15;21.07;;;9.17;;
71969;SDS011;59838;52.152;5.436;2023-02-11T07:16:42;19.35;;;8.45;;
71969;SDS011;59838;52.152;5.436;2023-02-11T07:19:08;26.80;;;9.80;;
71969;SDS011;59838;52.152;5.436;2023-02-11T07:21:35;30.40;;;9.88;;
71969;SDS011;59838;52.152;5.436;2023-02-11T07:24:04;27.88;;;10.02;;
71969;SDS011;59838;52.152;5.436;2023-02-11T07:26:35;22.00;;;9.30;;
71969;SDS011;59838;52.152;5.436;2023-02-11T07:29:02;22.40;;;8.85;;
71969;SDS011;59838;52.152;5.436;2023-02-11T07:31:28;24.40;;;8.98;;
71969;SDS011;59838;52.152;5.436;2023-02-11T07:33:57;22.20;;;9.07;;
71969;SDS011;59838;52.152;5.436;2023-02-11T07:36:26;26.52;;;9.88;;
71969;SDS011;59838;52.152;5.436;2023-02-11T07:38:54;25.50;;;10.20;;
71969;SDS011;59838;52.152;5.436;2023-02-11T07:41:21;27.35;;;10.32;;
71969;SDS011;59838;52.152;5.436;2023-02-11T07:43:49;26.98;;;10.80;;
71969;SDS011;59838;52.152;5.436;2023-02-11T07:46:17;26.25;;;9.55;;
71969;SDS011;59838;52.152;5.436;2023-02-11T07:48:48;23.02;;;9.88;;
71969;SDS011;59838;52.152;5.436;2023-02-11T07:51:25;29.67;;;9.77;;
71969;SDS011;59838;52.152;5.436;2023-02-11T07:53:54;22.95;;;10.85;;
71969;SDS011;59838;52.152;5.436;2023-02-11T07:56:22;32.25;;;10.38;;
71969;SDS011;59838;52.152;5.436;2023-02-11T07:58:50;24.90;;;9.80;;
71969;SDS011;59838;52.152;5.436;2023-02-11T08:01:18;24.17;;;9.80;;
71969;SDS011;59838;52.152;5.436;2023-02-11T08:03:50;27.77;;;11.23;;
71969;SDS011;59838;52.152;5.436;2023-02-11T08:06:17;30.33;;;9.63;;
71969;SDS011;59838;52.152;5.436;2023-02-11T08:08:45;26.35;;;10.23;;
71969;SDS011;59838;52.152;5.436;2023-02-11T08:11:16;25.65;;;11.15;;
71969;SDS011;59838;52.152;5.436;2023-02-11T08:13:48;27.45;;;9.55;;
71969;SDS011;59838;52.152;5.436;2023-02-11T08:18:49;26.42;;;9.45;;
71969;SDS011;59838;52.152;5.436;2023-02-11T08:21:16;28.45;;;10.55;;
71969;SDS011;59838;52.152;5.436;2023-02-11T08:23:43;32.78;;;10.50;;
71969;SDS011;59838;52.152;5.436;2023-02-11T08:26:12;25.35;;;10.35;;
71969;SDS011;59838;52.152;5.436;2023-02-11T08:28:41;22.80;;;10.20;;
71969;SDS011;59838;52.152;5.436;2023-02-11T08:31:13;28.20;;;9.65;;
71969;SDS011;59838;52.152;5.436;2023-02-11T08:33:42;23.55;;;9.63;;
71969;SDS011;59838;52.152;5.436;2023-02-11T08:36:09;25.00;;;10.77;;
71969;SDS011;59838;52.152;5.436;2023-02-11T08:38:40;27.92;;;10.82;;
71969;SDS011;59838;52.152;5.436;2023-02-11T08:41:07;23.43;;;9.60;;
71969;SDS011;59838;52.152;5.436;2023-02-11T08:43:35;28.38;;;10.25;;
71969;SDS011;59838;52.152;5.436;2023-02-11T08:46:02;29.23;;;10.52;;
71969;SDS011;59838;52.152;5.436;2023-02-11T08:48:29;31.05;;;9.70;;
71969;SDS011;59838;52.152;5.436;2023-02-11T08:50:55;23.77;;;9.48;;
71969;SDS011;59838;52.152;5.436;2023-02-11T08:53:22;21.97;;;9.97;;
71969;SDS011;59838;52.152;5.436;2023-02-11T08:55:50;24.70;;;9.60;;
71969;SDS011;59838;52.152;5.436;2023-02-11T08:58:20;30.98;;;10.45;;
71969;SDS011;59838;52.152;5.436;2023-02-11T09:00:47;17.80;;;8.23;;
71969;SDS011;59838;52.152;5.436;2023-02-11T09:03:16;17.65;;;8.55;;
71969;SDS011;59838;52.152;5.436;2023-02-11T09:05:43;21.33;;;9.53;;
71969;SDS011;59838;52.152;5.436;2023-02-11T09:08:13;26.77;;;9.45;;
71969;SDS011;59838;52.152;5.436;2023-02-11T09:10:39;19.58;;;8.98;;
71969;SDS011;59838;52.152;5.436;2023-02-11T09:13:06;27.27;;;9.25;;
71969;SDS011;59838;52.152;5.436;2023-02-11T09:15:33;21.60;;;8.43;;
71969;SDS011;59838;52.152;5.436;2023-02-11T09:17:59;23.67;;;9.10;;
71969;SDS011;59838;52.152;5.436;2023-02-11T09:20:26;19.48;;;8.13;;
71969;SDS011;59838;52.152;5.436;2023-02-11T09:22:53;19.95;;;9.05;;
71969;SDS011;59838;52.152;5.436;2023-02-11T09:25:22;21.13;;;10.02;;
71969;SDS011;59838;52.152;5.436;2023-02-11T09:27:48;18.08;;;9.82;;
71969;SDS011;59838;52.152;5.436;2023-02-11T09:30:16;20.63;;;9.07;;
71969;SDS011;59838;52.152;5.436;2023-02-11T09:32:43;18.80;;;9.05;;
71969;SDS011;59838;52.152;5.436;2023-02-11T09:35:09;18.25;;;8.35;;
71969;SDS011;59838;52.152;5.436;2023-02-11T09:37:35;16.92;;;7.88;;
71969;SDS011;59838;52.152;5.436;2023-02-11T09:40:02;16.08;;;8.02;;
71969;SDS011;59838;52.152;5.436;2023-02-11T09:42:41;16.27;;;7.43;;
71969;SDS011;59838;52.152;5.436;2023-02-11T09:45:12;17.38;;;7.55;;
71969;SDS011;59838;52.152;5.436;2023-02-11T09:47:46;19.67;;;9.13;;
71969;SDS011;59838;52.152;5.436;2023-02-11T09:50:22;16.92;;;7.78;;
71969;SDS011;59838;52.152;5.436;2023-02-11T09:52:55;19.05;;;7.95;;
71969;SDS011;59838;52.152;5.436;2023-02-11T09:55:32;12.10;;;6.80;;
71969;SDS011;59838;52.152;5.436;2023-02-11T09:58:04;13.30;;;7.07;;
71969;SDS011;59838;52.152;5.436;2023-02-11T10:00:39;16.65;;;7.93;;
71969;SDS011;59838;52.152;5.436;2023-02-11T10:09:08;21.50;;;7.63;;
71969;SDS011;59838;52.152;5.436;2023-02-11T10:19:55;15.40;;;7.78;;
71969;SDS011;59838;52.152;5.436;2023-02-11T10:22:36;12.20;;;6.50;;
71969;SDS011;59838;52.152;5.436;2023-02-11T10:25:27;14.98;;;7.50;;
71969;SDS011;59838;52.152;5.436;2023-02-11T10:28:13;12.10;;;7.05;;
71969;SDS011;59838;52.152;5.436;2023-02-11T10:30:55;11.23;;;6.97;;
71969;SDS011;59838;52.152;5.436;2023-02-11T10:36:13;13.70;;;6.37;;
71969;SDS011;59838;52.152;5.436;2023-02-11T10:38:42;16.52;;;6.47;;
71969;SDS011;59838;52.152;5.436;2023-02-11T10:41:12;12.65;;;6.47;;
71969;SDS011;59838;52.152;5.436;2023-02-11T10:43:43;10.32;;;5.95;;
71969;SDS011;59838;52.152;5.436;2023-02-11T10:46:13;11.55;;;6.85;;
71969;SDS011;59838;52.152;5.436;2023-02-11T10:48:44;13.43;;;6.97;;
71969;SDS011;59838;52.152;5.436;2023-02-11T10:51:17;10.27;;;6.35;;
71969;SDS011;59838;52.152;5.436;2023-02-11T10:54:09;9.75;;;6.43;;
71969;SDS011;59838;52.152;5.436;2023-02-11T10:59:14;10.73;;;6.13;;
71969;SDS011;59838;52.152;5.436;2023-02-11T11:02:22;9.07;;;5.90;;
71969;SDS011;59838;52.152;5.436;2023-02-11T11:04:48;11.40;;;6.22;;
71969;SDS011;59838;52.152;5.436;2023-02-11T11:07:26;11.02;;;5.93;;
71969;SDS011;59838;52.152;5.436;2023-02-11T11:12:51;10.70;;;5.80;;
71969;SDS011;59838;52.152;5.436;2023-02-11T11:17:50;13.00;;;5.88;;
71969;SDS011;59838;52.152;5.436;2023-02-11T11:21:21;13.20;;;5.68;;
71969;SDS011;59838;52.152;5.436;2023-02-11T11:23:53;11.63;;;6.18;;
71969;SDS011;59838;52.152;5.436;2023-02-11T11:26:22;14.48;;;6.80;;
71969;SDS011;59838;52.152;5.436;2023-02-11T11:29:01;11.77;;;5.47;;
71969;SDS011;59838;52.152;5.436;2023-02-11T11:31:44;11.80;;;5.80;;
71969;SDS011;59838;52.152;5.436;2023-02-11T11:34:20;12.65;;;6.15;;
71969;SDS011;59838;52.152;5.436;2023-02-11T11:36:55;12.43;;;6.13;;
71969;SDS011;59838;52.152;5.436;2023-02-11T11:41:56;14.33;;;5.60;;
71969;SDS011;59838;52.152;5.436;2023-02-11T11:44:41;10.27;;;5.53;;
71969;SDS011;59838;52.152;5.436;2023-02-11T11:47:24;11.02;;;6.03;;
71969;SDS011;59838;52.152;5.436;2023-02-11T11:50:10;9.05;;;4.85;;
71969;SDS011;59838;52.152;5.436;2023-02-11T11:52:53;11.43;;;5.28;;
71969;SDS011;59838;52.152;5.436;2023-02-11T11:58:00;9.77;;;4.38;;
71969;SDS011;59838;52.152;5.436;2023-02-11T12:03:15;8.30;;;4.28;;
71969;SDS011;59838;52.152;5.436;2023-02-11T12:06:08;11.93;;;4.68;;
71969;SDS011;59838;52.152;5.436;2023-02-11T12:39:23;9.68;;;3.08;;
71969;SDS011;59838;52.152;5.436;2023-02-11T12:55:34;6.25;;;3.33;;
71969;SDS011;59838;52.152;5.436;2023-02-11T12:58:06;5.65;;;3.20;;
71969;SDS011;59838;52.152;5.436;2023-02-11T13:00:44;4.93;;;3.40;;
71969;SDS011;59838;52.152;5.436;2023-02-11T13:03:12;6.40;;;3.10;;
71969;SDS011;59838;52.152;5.436;2023-02-11T13:05:48;7.07;;;3.28;;
71969;SDS011;59838;52.152;5.436;2023-02-11T13:08:20;7.30;;;3.25;;
71969;SDS011;59838;52.152;5.436;2023-02-11T13:10:54;6.13;;;3.00;;
71969;SDS011;59838;52.152;5.436;2023-02-11T13:13:25;6.75;;;3.88;;
71969;SDS011;59838;52.152;5.436;2023-02-11T13:16:03;6.37;;;3.20;;
71969;SDS011;59838;52.152;5.436;2023-02-11T13:27:23;4.78;;;3.30;;
71969;SDS011;59838;52.152;5.436;2023-02-11T13:35:27;5.50;;;3.47;;
71969;SDS011;59838;52.152;5.436;2023-02-11T13:38:01;8.93;;;3.03;;
71969;SDS011;59838;52.152;5.436;2023-02-11T13:40:36;5.78;;;3.13;;
71969;SDS011;59838;52.152;5.436;2023-02-11T13:43:05;5.57;;;2.97;;
71969;SDS011;59838;52.152;5.436;2023-02-11T13:45:45;6.22;;;2.80;;
71969;SDS011;59838;52.152;5.436;2023-02-11T13:48:16;5.88;;;3.50;;
71969;SDS011;59838;52.152;5.436;2023-02-11T13:50:47;9.23;;;3.70;;
71969;SDS011;59838;52.152;5.436;2023-02-11T13:53:16;4.75;;;2.50;;
71969;SDS011;59838;52.152;5.436;2023-02-11T13:55:44;5.20;;;2.60;;
71969;SDS011;59838;52.152;5.436;2023-02-11T14:08:58;8.57;;;2.57;;
71969;SDS011;59838;52.152;5.436;2023-02-11T14:16:33;5.20;;;2.85;;
71969;SDS011;59838;52.152;5.436;2023-02-11T14:19:04;7.03;;;3.13;;
71969;SDS011;59838;52.152;5.436;2023-02-11T14:21:33;8.73;;;3.10;;
71969;SDS011;59838;52.152;5.436;2023-02-11T14:27:13;6.00;;;2.85;;
71969;SDS011;59838;52.152;5.436;2023-02-11T14:32:05;4.75;;;2.85;;
71969;SDS011;59838;52.152;5.436;2023-02-11T14:40:33;7.88;;;3.45;;
71969;SDS011;59838;52.152;5.436;2023-02-11T14:43:11;12.10;;;2.97;;
71969;SDS011;59838;52.152;5.436;2023-02-11T14:45:43;4.32;;;2.75;;
71969;SDS011;59838;52.152;5.436;2023-02-11T14:48:15;4.30;;;2.70;;
71969;SDS011;59838;52.152;5.436;2023-02-11T14:50:44;6.32;;;3.00;;
71969;SDS011;59838;52.152;5.436;2023-02-11T14:53:13;6.57;;;2.97;;
71969;SDS011;59838;52.152;5.436;2023-02-11T14:55:45;6.18;;;2.70;;
71969;SDS011;59838;52.152;5.436;2023-02-11T14:58:18;7.50;;;2.90;;
71969;SDS011;59838;52.152;5.436;2023-02-11T15:00:48;9.70;;;3.20;;
71969;SDS011;59838;52.152;5.436;2023-02-11T15:03:24;4.90;;;2.55;;
71969;SDS011;59838;52.152;5.436;2023-02-11T15:06:06;6.68;;;2.92;;
71969;SDS011;59838;52.152;5.436;2023-02-11T15:08:34;4.90;;;2.65;;
71969;SDS011;59838;52.152;5.436;2023-02-11T15:11:03;4.57;;;2.40;;
71969;SDS011;59838;52.152;5.436;2023-02-11T15:13:35;4.37;;;2.40;;
71969;SDS011;59838;52.152;5.436;2023-02-11T15:16:04;5.55;;;2.72;;
71969;SDS011;59838;52.152;5.436;2023-02-11T15:18:34;7.85;;;3.35;;
71969;SDS011;59838;52.152;5.436;2023-02-11T15:21:04;9.13;;;2.85;;
71969;SDS011;59838;52.152;5.436;2023-02-11T15:23:32;6.25;;;3.35;;
71969;SDS011;59838;52.152;5.436;2023-02-11T15:25:59;6.90;;;3.07;;
71969;SDS011;59838;52.152;5.436;2023-02-11T15:28:31;6.80;;;2.42;;
71969;SDS011;59838;52.152;5.436;2023-02-11T15:31:00;4.88;;;2.80;;
71969;SDS011;59838;52.152;5.436;2023-02-11T15:33:31;5.72;;;2.42;;
71969;SDS011;59838;52.152;5.436;2023-02-11T15:35:58;4.55;;;2.90;;
71969;SDS011;59838;52.152;5.436;2023-02-11T15:38:26;6.13;;;2.97;;
71969;SDS011;59838;52.152;5.436;2023-02-11T15:40:59;6.45;;;2.60;;
71969;SDS011;59838;52.152;5.436;2023-02-11T15:46:14;8.23;;;2.75;;
71969;SDS011;59838;52.152;5.436;2023-02-11T15:48:45;7.93;;;3.08;;
71969;SDS011;59838;52.152;5.436;2023-02-11T15:54:06;6.30;;;3.08;;
71969;SDS011;59838;52.152;5.436;2023-02-11T15:56:41;6.28;;;2.75;;
71969;SDS011;59838;52.152;5.436;2023-02-11T15:59:14;12.38;;;4.40;;
71969;SDS011;59838;52.152;5.436;2023-02-11T16:01:42;6.45;;;2.88;;
71969;SDS011;59838;52.152;5.436;2023-02-11T16:04:14;9.23;;;2.67;;
71969;SDS011;59838;52.152;5.436;2023-02-11T16:06:49;6.05;;;2.30;;
71969;SDS011;59838;52.152;5.436;2023-02-11T16:09:24;5.03;;;2.63;;
71969;SDS011;59838;52.152;5.436;2023-02-11T16:12:03;4.75;;;2.83;;
71969;SDS011;59838;52.152;5.436;2023-02-11T16:14:48;10.05;;;2.70;;
71969;SDS011;59838;52.152;5.436;2023-02-11T16:19:44;8.15;;;2.67;;
71969;SDS011;59838;52.152;5.436;2023-02-11T16:22:18;7.45;;;2.30;;
71969;SDS011;59838;52.152;5.436;2023-02-11T16:24:48;10.00;;;2.45;;
71969;SDS011;59838;52.152;5.436;2023-02-11T16:27:22;7.10;;;2.78;;
71969;SDS011;59838;52.152;5.436;2023-02-11T16:29:53;7.23;;;3.00;;
71969;SDS011;59838;52.152;5.436;2023-02-11T16:32:21;7.97;;;2.13;;
71969;SDS011;59838;52.152;5.436;2023-02-11T16:34:56;7.53;;;2.92;;
71969;SDS011;59838;52.152;5.436;2023-02-11T16:37:24;5.70;;;2.38;;
71969;SDS011;59838;52.152;5.436;2023-02-11T16:39:57;5.32;;;2.80;;
71969;SDS011;59838;52.152;5.436;2023-02-11T16:42:23;5.47;;;3.00;;
71969;SDS011;59838;52.152;5.436;2023-02-11T16:44:50;11.30;;;2.83;;
71969;SDS011;59838;52.152;5.436;2023-02-11T16:47:19;6.07;;;2.80;;
71969;SDS011;59838;52.152;5.436;2023-02-11T16:49:49;8.13;;;3.10;;
71969;SDS011;59838;52.152;5.436;2023-02-11T16:52:16;6.07;;;2.80;;
71969;SDS011;59838;52.152;5.436;2023-02-11T16:54:43;5.83;;;2.83;;
71969;SDS011;59838;52.152;5.436;2023-02-11T16:57:16;5.78;;;2.25;;
71969;SDS011;59838;52.152;5.436;2023-02-11T16:59:44;5.22;;;2.42;;
71969;SDS011;59838;52.152;5.436;2023-02-11T17:02:13;5.68;;;2.67;;
71969;SDS011;59838;52.152;5.436;2023-02-11T17:04:42;7.63;;;2.88;;
71969;SDS011;59838;52.152;5.436;2023-02-11T17:07:09;6.50;;;2.73;;
71969;SDS011;59838;52.152;5.436;2023-02-11T17:09:35;6.78;;;2.20;;
71969;SDS011;59838;52.152;5.436;2023-02-11T17:12:02;7.80;;;4.13;;
71969;SDS011;59838;52.152;5.436;2023-02-11T17:14:28;8.82;;;3.40;;
71969;SDS011;59838;52.152;5.436;2023-02-11T17:16:55;5.40;;;2.80;;
71969;SDS011;59838;52.152;5.436;2023-02-11T17:19:21;8.40;;;3.87;;
71969;SDS011;59838;52.152;5.436;2023-02-11T17:21:50;6.90;;;2.60;;
71969;SDS011;59838;52.152;5.436;2023-02-11T17:24:18;8.88;;;2.65;;
71969;SDS011;59838;52.152;5.436;2023-02-11T17:26:46;6.43;;;2.80;;
71969;SDS011;59838;52.152;5.436;2023-02-11T17:29:14;14.02;;;3.42;;
71969;SDS011;59838;52.152;5.436;2023-02-11T17:31:45;8.10;;;3.83;;
71969;SDS011;59838;52.152;5.436;2023-02-11T17:34:11;8.60;;;3.10;;
71969;SDS011;59838;52.152;5.436;2023-02-11T17:36:38;7.22;;;3.67;;
71969;SDS011;59838;52.152;5.436;2023-02-11T17:39:06;9.18;;;3.65;;
71969;SDS011;59838;52.152;5.436;2023-02-11T17:41:36;4.72;;;3.28;;